Time;durP1;ratioP1;P1;durP2;ratioP2;P2;SDS_P1;SDS_P2;PMS_P1;PMS_P2;Temp;Humidity;BMP_temperature;BMP_pressure;BME280_temperature;BME280_humidity;BME280_pressure;Samples;Min_cycle;Max_cycle;Signal;HPM_P1;HPM_P2
2023/04/17 00:00:27;;;;;;;29.60;17.80;;;;;;;;;;10507928;28;20042;-83
2023/04/17 00:05:30;;;;;;;31.17;19.00;;;;;;;;;;10525493;28;20475;-82
2023/04/17 00:10:31;;;;;;;33.57;19.30;;;;;;;;;;10525246;28;20051;-82
2023/04/17 00:15:32;;;;;;;30.53;18.30;;;;;;;;;;10525398;28;20581;-81
2023/04/17 00:20:33;;;;;;;28.97;18.90;;;;;;;;;;10524903;28;20047;-82
2023/04/17 00:25:34;;;;;;;32.77;18.73;;;;;;;;;;10525358;28;20028;-81
2023/04/17 00:30:35;;;;;;;36.77;20.40;;;;;;;;;;10529979;28;20101;-81
2023/04/17 00:35:37;;;;;;;34.83;19.17;;;;;;;;;;10532723;28;20040;-83
2023/04/17 00:40:41;;;;;;;38.00;21.40;;;;;;;;;;10532214;28;20040;-82
2023/04/17 00:45:42;;;;;;;42.10;22.43;;;;;;;;;;10532062;28;20056;-83
2023/04/17 00:50:44;;;;;;;38.57;21.50;;;;;;;;;;10532481;28;20048;-82
2023/04/17 00:55:47;;;;;;;36.70;20.67;;;;;;;;;;10532420;28;20531;-83
2023/04/17 01:00:48;;;;;;;33.53;20.30;;;;;;;;;;10531754;28;20035;-83
2023/04/17 01:05:50;;;;;;;38.90;21.47;;;;;;;;;;10531908;28;20044;-82
2023/04/17 01:10:51;;;;;;;43.43;23.07;;;;;;;;;;10531487;28;20076;-81
2023/04/17 01:15:52;;;;;;;43.73;23.60;;;;;;;;;;10512335;28;20123;-81
2023/04/17 01:20:53;;;;;;;47.23;24.27;;;;;;;;;;10530162;28;20471;-81
2023/04/17 01:25:54;;;;;;;42.43;23.70;;;;;;;;;;10530571;28;20089;-82
2023/04/17 01:30:55;;;;;;;40.37;22.40;;;;;;;;;;10530477;28;20036;-81
2023/04/17 01:35:56;;;;;;;38.90;22.30;;;;;;;;;;10530097;28;20039;-81
2023/04/17 01:40:57;;;;;;;46.87;24.73;;;;;;;;;;10529766;28;20028;-82
2023/04/17 01:45:58;;;;;;;40.60;22.43;;;;;;;;;;10529276;28;20036;-83
2023/04/17 01:51:00;;;;;;;44.60;24.53;;;;;;;;;;10529697;28;20040;-82
2023/04/17 01:56:01;;;;;;;46.07;24.70;;;;;;;;;;10511576;28;20032;-83
2023/04/17 02:01:02;;;;;;;44.60;23.67;;;;;;;;;;10528213;28;20028;-82
2023/04/17 02:06:03;;;;;;;43.70;24.70;;;;;;;;;;10527919;28;20390;-82
2023/04/17 02:11:04;;;;;;;52.10;27.17;;;;;;;;;;10528973;28;20395;-83
2023/04/17 02:16:06;;;;;;;50.90;26.60;;;;;;;;;;10528397;28;20035;-83
2023/04/17 02:21:08;;;;;;;47.13;26.23;;;;;;;;;;10528726;28;20024;-83
2023/04/17 02:26:09;;;;;;;48.87;26.43;;;;;;;;;;10523568;28;20081;-82
2023/04/17 02:31:11;;;;;;;42.20;24.77;;;;;;;;;;10521980;28;20048;-83
2023/04/17 02:36:12;;;;;;;52.27;26.53;;;;;;;;;;10521209;28;20043;-82
2023/04/17 02:41:13;;;;;;;51.63;27.13;;;;;;;;;;10528319;28;20596;-83
2023/04/17 02:46:14;;;;;;;50.03;27.43;;;;;;;;;;10526440;28;20028;-83
2023/04/17 02:51:15;;;;;;;49.23;25.20;;;;;;;;;;10527368;28;20036;-82
2023/04/17 02:56:16;;;;;;;49.90;26.60;;;;;;;;;;10507231;28;20028;-82
2023/04/17 03:01:18;;;;;;;57.07;27.80;;;;;;;;;;10527821;28;20047;-84
2023/04/17 03:06:18;;;;;;;55.00;28.93;;;;;;;;;;10467416;28;20064;-80
2023/04/17 03:11:20;;;;;;;54.93;29.17;;;;;;;;;;10467162;28;20495;-85
2023/04/17 03:16:21;;;;;;;56.17;29.87;;;;;;;;;;10466815;28;20442;-83
2023/04/17 03:21:22;;;;;;;53.73;28.87;;;;;;;;;;10485678;28;20032;-82
2023/04/17 03:26:23;;;;;;;53.70;28.37;;;;;;;;;;10484789;28;20033;-82
2023/04/17 03:31:24;;;;;;;53.43;27.10;;;;;;;;;;10484981;28;20063;-81
2023/04/17 03:36:26;;;;;;;52.80;27.83;;;;;;;;;;10484016;28;20032;-82
2023/04/17 03:41:26;;;;;;;52.10;28.70;;;;;;;;;;10485970;28;20032;-82
2023/04/17 03:46:27;;;;;;;52.57;28.97;;;;;;;;;;10486374;28;20134;-82
2023/04/17 03:51:30;;;;;;;54.47;29.13;;;;;;;;;;10484656;28;20123;-85
2023/04/17 03:56:31;;;;;;;53.37;27.77;;;;;;;;;;10483011;28;20119;-80
2023/04/17 04:01:32;;;;;;;60.07;29.07;;;;;;;;;;10466873;28;20476;-80
2023/04/17 04:06:33;;;;;;;52.83;27.17;;;;;;;;;;10534128;28;20038;-81
2023/04/17 04:11:34;;;;;;;51.90;27.43;;;;;;;;;;10533104;28;20036;-82
2023/04/17 04:16:35;;;;;;;58.87;30.67;;;;;;;;;;10533470;28;20025;-81
2023/04/17 04:21:36;;;;;;;63.40;30.63;;;;;;;;;;10533275;28;20032;-80
2023/04/17 04:26:39;;;;;;;63.83;31.97;;;;;;;;;;10532938;28;20032;-83
2023/04/17 04:31:40;;;;;;;68.93;32.03;;;;;;;;;;10529564;28;20038;-82
2023/04/17 04:36:48;;;;;;;76.23;34.47;;;;;;;;;;10523681;28;20588;-81
2023/04/17 04:41:50;;;;;;;77.37;35.33;;;;;;;;;;10533160;28;20028;-80
2023/04/17 04:46:54;;;;;;;70.57;32.07;;;;;;;;;;10532585;28;20039;-82
2023/04/17 04:51:55;;;;;;;80.97;36.33;;;;;;;;;;10531325;28;20507;-81
2023/04/17 04:56:56;;;;;;;69.27;34.23;;;;;;;;;;10522839;28;20391;-82
2023/04/17 05:01:57;;;;;;;89.10;36.73;;;;;;;;;;10532211;28;20054;-82
2023/04/17 05:06:58;;;;;;;100.83;39.90;;;;;;;;;;10522205;28;20037;-81
2023/04/17 05:11:59;;;;;;;93.57;37.87;;;;;;;;;;10548433;28;20126;-81
2023/04/17 05:17:00;;;;;;;94.93;37.00;;;;;;;;;;10512055;28;20034;-82
2023/04/17 05:22:01;;;;;;;100.70;39.40;;;;;;;;;;10530853;28;20494;-82
2023/04/17 05:27:02;;;;;;;110.37;42.93;;;;;;;;;;10516970;28;20036;-81
2023/04/17 05:32:03;;;;;;;96.17;39.73;;;;;;;;;;10518216;28;20487;-81
2023/04/17 05:37:05;;;;;;;98.93;41.47;;;;;;;;;;10531219;28;20117;-81
2023/04/17 05:42:06;;;;;;;97.03;39.57;;;;;;;;;;10531181;28;20495;-82
2023/04/17 05:47:07;;;;;;;92.37;38.97;;;;;;;;;;10511621;28;20024;-82
2023/04/17 05:52:08;;;;;;;88.37;35.83;;;;;;;;;;10530698;28;20028;-82
2023/04/17 05:57:09;;;;;;;80.70;35.63;;;;;;;;;;10530371;28;20163;-82
2023/04/17 06:02:11;;;;;;;70.73;31.83;;;;;;;;;;10530453;28;20048;-82
2023/04/17 06:07:12;;;;;;;73.20;34.00;;;;;;;;;;10530217;28;20024;-82
2023/04/17 06:12:14;;;;;;;70.90;31.60;;;;;;;;;;10529122;28;20156;-81
2023/04/17 06:17:15;;;;;;;73.17;35.60;;;;;;;;;;10529452;28;20020;-82
2023/04/17 06:22:16;;;;;;;57.17;29.20;;;;;;;;;;10529374;28;20028;-81
2023/04/17 06:27:17;;;;;;;64.97;31.30;;;;;;;;;;10529090;28;20020;-82
2023/04/17 06:32:18;;;;;;;62.37;30.67;;;;;;;;;;10529159;28;20612;-83
2023/04/17 06:37:19;;;;;;;52.90;27.33;;;;;;;;;;10528134;28;20035;-82
2023/04/17 06:42:20;;;;;;;53.42;27.80;;;;;;;;;;10528505;28;20031;-82
2023/04/17 06:47:21;;;;;;;52.97;28.50;;;;;;;;;;10528212;28;20051;-81
2023/04/17 06:52:22;;;;;;;50.80;27.40;;;;;;;;;;10528304;28;20036;-81
2023/04/17 06:57:23;;;;;;;53.97;28.10;;;;;;;;;;10527653;28;20032;-81
2023/04/17 07:02:24;;;;;;;47.33;25.73;;;;;;;;;;10527200;28;20058;-80
2023/04/17 07:07:26;;;;;;;46.35;25.92;;;;;;;;;;10527664;28;20023;-82
2023/04/17 07:12:27;;;;;;;42.03;25.10;;;;;;;;;;10527341;28;20040;-83
2023/04/17 07:17:28;;;;;;;44.00;25.40;;;;;;;;;;10527034;28;20467;-83
2023/04/17 07:22:29;;;;;;;42.28;25.02;;;;;;;;;;10526903;28;20467;-81
2023/04/17 07:27:30;;;;;;;47.38;26.50;;;;;;;;;;10526781;28;20364;-81
2023/04/17 07:32:31;;;;;;;47.40;26.13;;;;;;;;;;10527557;28;20047;-82
2023/04/17 07:37:33;;;;;;;47.35;26.40;;;;;;;;;;10521182;28;20032;-82
2023/04/17 07:42:34;;;;;;;46.30;25.38;;;;;;;;;;10538914;28;20044;-81
2023/04/17 07:47:35;;;;;;;41.97;24.52;;;;;;;;;;10540238;28;20548;-82
2023/04/17 07:52:36;;;;;;;38.47;24.13;;;;;;;;;;10540939;28;20111;-83
2023/04/17 07:57:41;;;;;;;35.85;21.48;;;;;;;;;;10540519;28;20027;-81
2023/04/17 08:02:42;;;;;;;37.05;23.10;;;;;;;;;;10539886;28;20048;-82
2023/04/17 08:07:43;;;;;;;34.42;21.02;;;;;;;;;;10540006;28;20111;-81
2023/04/17 08:12:44;;;;;;;27.55;18.02;;;;;;;;;;10540131;28;20047;-82
2023/04/17 08:17:45;;;;;;;27.70;17.45;;;;;;;;;;10539745;28;20028;-82
2023/04/17 08:22:46;;;;;;;26.27;17.45;;;;;;;;;;10540356;28;20030;-81
2023/04/17 08:27:47;;;;;;;25.42;16.00;;;;;;;;;;10540060;28;20117;-82
2023/04/17 08:32:49;;;;;;;22.13;15.35;;;;;;;;;;10539885;28;20028;-82
2023/04/17 08:37:50;;;;;;;24.20;15.43;;;;;;;;;;10539532;28;20030;-83
2023/04/17 08:42:52;;;;;;;22.63;15.45;;;;;;;;;;10538067;28;20376;-82
2023/04/17 08:47:53;;;;;;;23.48;15.55;;;;;;;;;;10534588;28;20498;-83
2023/04/17 08:52:54;;;;;;;22.77;15.23;;;;;;;;;;10530434;28;20027;-81
2023/04/17 08:57:59;;;;;;;23.35;15.57;;;;;;;;;;10532098;28;20101;-83
2023/04/17 09:03:00;;;;;;;;;;;;;;;;;;10524302;28;20127;-81
2023/04/17 09:08:14;;;;;;;23.15;14.77;;;;;;;;;;10490482;28;20314;-82
2023/04/17 09:13:17;;;;;;;19.92;12.35;;;;;;;;;;10491531;28;20044;-83
2023/04/17 09:18:25;;;;;;;20.92;14.27;;;;;;;;;;10492718;28;20100;-82
2023/04/17 09:23:30;;;;;;;19.27;12.93;;;;;;;;;;10480447;28;20036;-83
2023/04/17 09:28:34;;;;;;;19.23;12.13;;;;;;;;;;10489482;28;20052;-82
2023/04/17 09:33:35;;;;;;;17.00;12.23;;;;;;;;;;10501589;28;20028;-82
2023/04/17 09:38:37;;;;;;;21.38;12.35;;;;;;;;;;10496229;28;20032;-82
2023/04/17 09:43:42;;;;;;;16.95;11.48;;;;;;;;;;10489336;28;20037;-83
2023/04/17 09:48:43;;;;;;;17.13;11.45;;;;;;;;;;10493596;28;20101;-83
2023/04/17 09:53:44;;;;;;;17.63;11.82;;;;;;;;;;10488179;28;20450;-82
2023/04/17 09:58:47;;;;;;;14.95;9.75;;;;;;;;;;10488010;28;20104;-82
2023/04/17 10:03:49;;;;;;;14.55;10.27;;;;;;;;;;10509715;28;20454;-81
2023/04/17 10:08:53;;;;;;;12.35;8.68;;;;;;;;;;10511169;28;20164;-84
2023/04/17 10:14:13;;;;;;;11.57;8.60;;;;;;;;;;10528569;28;20050;-82
2023/04/17 10:19:22;;;;;;;14.18;9.65;;;;;;;;;;10528849;28;20027;-83
2023/04/17 10:24:24;;;;;;;12.80;9.77;;;;;;;;;;10528619;28;20039;-83
2023/04/17 10:29:48;;;;;;;16.15;11.30;;;;;;;;;;10528841;28;20032;-83
2023/04/17 10:34:50;;;;;;;18.75;12.15;;;;;;;;;;10508895;28;20055;-81
2023/04/17 10:39:53;;;;;;;16.40;11.25;;;;;;;;;;10528377;28;20032;-82
2023/04/17 10:44:58;;;;;;;15.95;11.57;;;;;;;;;;10527896;28;20063;-83
2023/04/17 10:50:00;;;;;;;18.53;11.70;;;;;;;;;;10505929;28;20094;-82
2023/04/17 10:55:09;;;;;;;14.15;10.32;;;;;;;;;;10527091;28;20028;-83
2023/04/17 11:00:11;;;;;;;15.15;9.77;;;;;;;;;;10526505;28;20491;-82
2023/04/17 11:05:12;;;;;;;14.82;9.32;;;;;;;;;;10525355;28;20070;-82
2023/04/17 11:10:13;;;;;;;15.45;10.02;;;;;;;;;;10526453;28;20827;-82
2023/04/17 11:15:15;;;;;;;14.60;10.02;;;;;;;;;;10525367;28;20032;-81
2023/04/17 11:20:20;;;;;;;16.90;10.10;;;;;;;;;;10514651;28;20034;-81
2023/04/17 11:25:30;;;;;;;16.47;10.13;;;;;;;;;;10526786;28;20532;-83
2023/04/17 11:30:32;;;;;;;19.15;12.75;;;;;;;;;;10524303;28;20630;-82
2023/04/17 11:35:34;;;;;;;24.40;16.20;;;;;;;;;;10526214;28;20028;-82
2023/04/17 11:40:35;;;;;;;30.77;18.42;;;;;;;;;;10526762;28;20490;-82
2023/04/17 11:45:36;;;;;;;26.52;15.20;;;;;;;;;;10525526;28;20028;-82
2023/04/17 11:50:38;;;;;;;27.63;17.48;;;;;;;;;;10525544;28;20132;-84
2023/04/17 11:55:39;;;;;;;34.47;20.15;;;;;;;;;;10525884;28;20586;-81
2023/04/17 12:00:41;;;;;;;37.47;19.67;;;;;;;;;;10523664;28;20595;-80
2023/04/17 12:05:42;;;;;;;36.67;21.45;;;;;;;;;;10526260;28;20048;-80
2023/04/17 12:10:44;;;;;;;42.10;23.15;;;;;;;;;;10524909;28;20040;-80
2023/04/17 12:15:45;;;;;;;38.13;21.33;;;;;;;;;;10524946;28;20107;-81
2023/04/17 12:20:46;;;;;;;34.42;20.90;;;;;;;;;;10524467;28;20670;-82
2023/04/17 12:25:47;;;;;;;35.92;21.15;;;;;;;;;;10531080;28;20032;-82
2023/04/17 12:30:48;;;;;;;31.20;18.13;;;;;;;;;;10531025;28;20777;-82
2023/04/17 12:35:49;;;;;;;30.77;19.63;;;;;;;;;;10527497;28;20483;-81
2023/04/17 12:40:50;;;;;;;31.65;19.88;;;;;;;;;;10532632;28;20039;-80
2023/04/17 12:45:54;;;;;;;29.88;18.20;;;;;;;;;;10531880;28;20042;-81
2023/04/17 12:50:55;;;;;;;31.30;18.73;;;;;;;;;;10530031;28;20063;-83
2023/04/17 12:55:56;;;;;;;30.52;17.58;;;;;;;;;;10533323;28;20111;-80
2023/04/17 13:00:57;;;;;;;28.33;16.67;;;;;;;;;;10531111;28;20020;-82
2023/04/17 13:05:58;;;;;;;23.20;14.25;;;;;;;;;;10531524;28;20495;-81
2023/04/17 13:11:02;;;;;;;27.50;13.85;;;;;;;;;;10513011;28;20043;-81
2023/04/17 13:16:03;;;;;;;19.75;13.02;;;;;;;;;;10531243;28;20020;-83
2023/04/17 13:21:04;;;;;;;17.13;10.32;;;;;;;;;;10512337;28;20155;-83
2023/04/17 13:26:05;;;;;;;18.05;11.93;;;;;;;;;;10531535;28;20024;-82
2023/04/17 13:31:06;;;;;;;14.20;10.18;;;;;;;;;;10530566;28;20035;-82
2023/04/17 13:36:07;;;;;;;18.08;11.20;;;;;;;;;;10529470;28;20028;-83
2023/04/17 13:41:08;;;;;;;16.95;10.45;;;;;;;;;;10530852;28;20028;-82
2023/04/17 13:46:11;;;;;;;16.67;10.32;;;;;;;;;;10529135;28;20041;-83
2023/04/17 13:51:13;;;;;;;18.08;11.55;;;;;;;;;;10525867;28;20545;-82
2023/04/17 13:56:13;;;;;;;20.30;11.95;;;;;;;;;;10530178;28;20595;-82
2023/04/17 14:01:14;;;;;;;29.23;18.58;;;;;;;;;;10529886;28;20107;-82
2023/04/17 14:06:18;;;;;;;83.20;62.88;;;;;;;;;;10503872;28;20703;-82
2023/04/17 14:11:20;;;;;;;41.55;30.83;;;;;;;;;;10502602;28;20036;-83
2023/04/17 14:16:21;;;;;;;31.40;22.33;;;;;;;;;;10486072;28;20028;-82
2023/04/17 14:21:21;;;;;;;53.33;43.95;;;;;;;;;;10488336;28;20076;-80
2023/04/17 14:26:22;;;;;;;55.65;46.13;;;;;;;;;;10468532;28;20097;-82
2023/04/17 14:31:23;;;;;;;51.47;42.08;;;;;;;;;;10487352;28;20041;-83
2023/04/17 14:36:24;;;;;;;46.38;36.35;;;;;;;;;;10472387;28;20587;-82
2023/04/17 14:41:28;;;;;;;98.80;74.28;;;;;;;;;;10497957;28;20032;-83
2023/04/17 14:46:29;;;;;;;178.88;149.35;;;;;;;;;;10484999;28;20029;-82
2023/04/17 14:51:30;;;;;;;153.02;114.38;;;;;;;;;;10485726;28;20041;-83
2023/04/17 14:56:31;;;;;;;24.25;14.95;;;;;;;;;;10491302;28;20472;-83
2023/04/17 15:01:32;;;;;;;27.13;18.52;;;;;;;;;;10485359;28;20041;-82
2023/04/17 15:06:33;;;;;;;102.68;70.95;;;;;;;;;;10527306;28;20028;-82
2023/04/17 15:11:35;;;;;;;66.80;46.67;;;;;;;;;;10527301;28;20497;-84
2023/04/17 15:16:36;;;;;;;55.92;44.03;;;;;;;;;;10527732;28;20016;-83
2023/04/17 15:21:37;;;;;;;38.35;23.50;;;;;;;;;;10526355;28;20028;-83
2023/04/17 15:26:39;;;;;;;54.25;41.28;;;;;;;;;;10500629;28;20052;-82
2023/04/17 15:31:40;;;;;;;37.63;22.55;;;;;;;;;;10525430;28;20054;-83
2023/04/17 15:36:40;;;;;;;33.90;21.63;;;;;;;;;;10524932;28;20028;-82
2023/04/17 15:41:42;;;;;;;47.83;34.17;;;;;;;;;;10526439;28;20111;-83
2023/04/17 15:46:43;;;;;;;43.38;33.08;;;;;;;;;;10489637;28;20040;-85
2023/04/17 15:51:44;;;;;;;43.00;26.17;;;;;;;;;;10507148;28;20055;-83
2023/04/17 15:56:45;;;;;;;46.55;29.35;;;;;;;;;;10526092;28;20405;-85
2023/04/17 16:01:47;;;;;;;45.70;26.25;;;;;;;;;;10532903;28;20501;-83
2023/04/17 16:06:47;;;;;;;54.53;26.00;;;;;;;;;;10524693;28;20038;-83
2023/04/17 16:11:48;;;;;;;60.03;30.77;;;;;;;;;;10532490;28;20040;-82
2023/04/17 16:16:49;;;;;;;47.20;26.95;;;;;;;;;;10533545;28;20024;-84
2023/04/17 16:21:50;;;;;;;68.93;39.42;;;;;;;;;;10533940;28;20040;-80
2023/04/17 16:26:59;;;;;;;56.28;29.60;;;;;;;;;;10531778;28;20484;-83
2023/04/17 16:32:00;;;;;;;50.40;27.52;;;;;;;;;;10531476;28;20636;-82
2023/04/17 16:37:02;;;;;;;55.67;30.90;;;;;;;;;;10532467;28;20039;-82
2023/04/17 16:42:03;;;;;;;63.75;33.58;;;;;;;;;;10532841;28;20036;-82
2023/04/17 16:47:04;;;;;;;58.40;28.08;;;;;;;;;;10532006;28;20395;-82
2023/04/17 16:52:05;;;;;;;55.47;27.85;;;;;;;;;;10531683;28;20136;-82
2023/04/17 16:57:06;;;;;;;41.17;21.80;;;;;;;;;;10532062;28;20028;-81
2023/04/17 17:02:07;;;;;;;41.10;20.63;;;;;;;;;;10531328;28;20048;-82
2023/04/17 17:07:08;;;;;;;31.90;15.48;;;;;;;;;;10513199;28;20039;-83
2023/04/17 17:12:10;;;;;;;34.90;17.27;;;;;;;;;;10527538;28;20043;-82
2023/04/17 17:17:11;;;;;;;38.75;20.02;;;;;;;;;;10529624;28;20481;-82
2023/04/17 17:22:12;;;;;;;38.65;20.33;;;;;;;;;;10529399;28;20107;-83
2023/04/17 17:27:14;;;;;;;43.38;20.42;;;;;;;;;;10529587;28;20100;-82
2023/04/17 17:32:15;;;;;;;53.65;24.30;;;;;;;;;;10529806;28;20028;-81
2023/04/17 17:37:16;;;;;;;71.90;38.55;;;;;;;;;;10529827;28;20433;-81
2023/04/17 17:42:17;;;;;;;61.67;25.98;;;;;;;;;;10529965;28;20085;-81
2023/04/17 17:47:18;;;;;;;125.57;77.60;;;;;;;;;;10529802;28;20032;-81
2023/04/17 17:52:19;;;;;;;71.28;39.17;;;;;;;;;;10527179;28;20410;-82
2023/04/17 17:57:20;;;;;;;82.70;52.80;;;;;;;;;;10529612;28;20683;-80
2023/04/17 18:02:21;;;;;;;46.55;25.58;;;;;;;;;;10528883;28;20796;-80
2023/04/17 18:07:22;;;;;;;80.22;52.65;;;;;;;;;;10527921;28;20107;-82
2023/04/17 18:12:23;;;;;;;46.55;23.27;;;;;;;;;;10532102;28;20131;-80
2023/04/17 18:17:24;;;;;;;42.35;19.88;;;;;;;;;;10534347;28;20032;-81
2023/04/17 18:22:25;;;;;;;57.60;36.08;;;;;;;;;;10528918;28;20036;-80
2023/04/17 18:27:26;;;;;;;64.22;37.92;;;;;;;;;;10528726;28;20020;-81
2023/04/17 18:32:27;;;;;;;99.63;63.10;;;;;;;;;;10527432;28;20097;-82
2023/04/17 18:37:28;;;;;;;87.07;58.13;;;;;;;;;;10527621;28;20463;-82
2023/04/17 18:42:29;;;;;;;66.45;36.25;;;;;;;;;;10514222;28;20140;-80
2023/04/17 18:47:30;;;;;;;178.70;90.53;;;;;;;;;;10527608;28;20504;-80
2023/04/17 18:52:31;;;;;;;197.87;119.60;;;;;;;;;;10527291;28;20672;-82
2023/04/17 18:57:32;;;;;;;59.67;29.20;;;;;;;;;;10511554;28;20031;-82
2023/04/17 19:02:34;;;;;;;55.47;28.90;;;;;;;;;;10506821;28;20052;-85
2023/04/17 19:07:35;;;;;;;103.20;58.20;;;;;;;;;;10520426;28;20028;-85
2023/04/17 19:12:36;;;;;;;54.13;22.27;;;;;;;;;;10527162;28;20100;-84
2023/04/17 19:17:37;;;;;;;74.55;36.22;;;;;;;;;;10526027;28;20064;-83
2023/04/17 19:22:38;;;;;;;98.40;49.50;;;;;;;;;;10508468;28;20765;-87
2023/04/17 19:27:39;;;;;;;186.93;114.07;;;;;;;;;;10527489;28;20038;-83
2023/04/17 19:32:40;;;;;;;91.97;51.50;;;;;;;;;;10526144;28;20032;-84
2023/04/17 19:37:41;;;;;;;45.17;21.17;;;;;;;;;;10526565;28;20048;-84
2023/04/17 19:42:42;;;;;;;42.88;18.92;;;;;;;;;;10526424;28;20028;-84
2023/04/17 19:47:43;;;;;;;72.30;38.08;;;;;;;;;;10526737;28;20044;-83
2023/04/17 19:52:44;;;;;;;51.50;24.67;;;;;;;;;;10526334;28;20035;-83
2023/04/17 19:57:45;;;;;;;61.47;34.33;;;;;;;;;;10525895;28;20036;-83
2023/04/17 20:02:46;;;;;;;71.00;35.53;;;;;;;;;;10525732;28;20048;-84
2023/04/17 20:07:47;;;;;;;75.47;44.88;;;;;;;;;;10508729;28;20027;-82
2023/04/17 20:12:48;;;;;;;45.30;20.83;;;;;;;;;;10527179;28;20044;-84
2023/04/17 20:17:49;;;;;;;141.23;98.67;;;;;;;;;;10508078;28;20072;-83
2023/04/17 20:22:51;;;;;;;60.13;29.23;;;;;;;;;;10524938;28;20483;-83
2023/04/17 20:27:52;;;;;;;48.60;21.70;;;;;;;;;;10526140;28;20101;-84
2023/04/17 20:32:53;;;;;;;39.37;18.17;;;;;;;;;;10525601;28;20551;-83
2023/04/17 20:37:54;;;;;;;40.17;16.00;;;;;;;;;;10525320;28;20040;-84
2023/04/17 20:42:55;;;;;;;39.00;18.03;;;;;;;;;;10526177;28;20032;-82
2023/04/17 20:47:56;;;;;;;26.37;10.87;;;;;;;;;;10533029;28;20028;-84
2023/04/17 20:52:57;;;;;;;22.45;10.75;;;;;;;;;;10533091;28;20036;-83
2023/04/17 20:57:58;;;;;;;24.27;10.50;;;;;;;;;;10533377;28;20032;-85
2023/04/17 21:02:59;;;;;;;24.33;10.27;;;;;;;;;;10520630;28;20131;-84
2023/04/17 21:08:00;;;;;;;24.47;10.67;;;;;;;;;;10477174;28;20035;-84
2023/04/17 21:13:01;;;;;;;24.10;10.43;;;;;;;;;;10493079;28;20040;-84
2023/04/17 21:18:02;;;;;;;14.73;7.80;;;;;;;;;;10498758;28;20115;-84
2023/04/17 21:23:03;;;;;;;19.13;8.73;;;;;;;;;;10493806;28;20084;-85
2023/04/17 21:28:04;;;;;;;18.93;8.57;;;;;;;;;;10490550;28;20016;-83
2023/04/17 21:33:05;;;;;;;22.57;10.03;;;;;;;;;;10494512;28;20085;-84
2023/04/17 21:38:06;;;;;;;22.47;10.73;;;;;;;;;;10503620;28;20529;-85
2023/04/17 21:43:07;;;;;;;21.33;10.00;;;;;;;;;;10489750;28;20067;-84
2023/04/17 21:48:08;;;;;;;19.93;9.60;;;;;;;;;;10489590;28;20032;-84
2023/04/17 21:53:09;;;;;;;22.47;11.77;;;;;;;;;;10489196;28;20043;-83
2023/04/17 21:58:10;;;;;;;28.10;13.33;;;;;;;;;;10488079;28;20016;-84
2023/04/17 22:03:11;;;;;;;25.07;11.63;;;;;;;;;;10493016;28;20074;-84
2023/04/17 22:08:12;;;;;;;26.43;11.60;;;;;;;;;;10488324;28;20024;-84
2023/04/17 22:13:16;;;;;;;23.47;11.37;;;;;;;;;;10488193;28;20025;-84
2023/04/17 22:18:17;;;;;;;26.40;12.13;;;;;;;;;;10488949;28;20025;-84
2023/04/17 22:23:18;;;;;;;25.60;12.47;;;;;;;;;;10492334;28;20044;-84
2023/04/17 22:28:19;;;;;;;27.53;12.53;;;;;;;;;;10487168;28;20495;-84
2023/04/17 22:33:20;;;;;;;27.23;11.57;;;;;;;;;;10490915;28;20399;-84
2023/04/17 22:38:21;;;;;;;30.67;13.23;;;;;;;;;;10475713;28;20033;-84
2023/04/17 22:43:22;;;;;;;26.60;10.87;;;;;;;;;;10486510;28;20051;-84
2023/04/17 22:48:23;;;;;;;27.63;12.13;;;;;;;;;;10488751;28;20043;-84
2023/04/17 22:53:24;;;;;;;25.50;11.23;;;;;;;;;;10489458;28;20460;-84
2023/04/17 22:58:25;;;;;;;30.87;11.83;;;;;;;;;;10486263;28;20033;-85
2023/04/17 23:09:04;;;;;;;22.00;9.37;;;;;;;;;;10525566;28;20035;-85
2023/04/17 23:14:06;;;;;;;29.17;12.20;;;;;;;;;;10527741;28;20028;-85
2023/04/17 23:19:07;;;;;;;20.93;9.87;;;;;;;;;;10527290;28;20064;-85
2023/04/17 23:24:08;;;;;;;22.37;10.20;;;;;;;;;;10527329;28;20627;-84
2023/04/17 23:29:08;;;;;;;24.80;10.57;;;;;;;;;;10527107;28;20474;-85
2023/04/17 23:34:10;;;;;;;27.10;10.87;;;;;;;;;;10526316;28;20378;-84
2023/04/17 23:39:10;;;;;;;29.17;12.87;;;;;;;;;;10513879;28;20112;-84
2023/04/17 23:44:12;;;;;;;22.77;10.33;;;;;;;;;;10513099;28;20035;-84
2023/04/17 23:49:12;;;;;;;31.50;12.57;;;;;;;;;;10525171;28;20051;-84
2023/04/17 23:54:13;;;;;;;24.83;10.10;;;;;;;;;;10508467;28;20694;-84
2023/04/17 23:59:15;;;;;;;31.70;11.60;;;;;;;;;;10526556;28;20032;-84
